sensor_id;sensor_type;location;lat;lon;timestamp;P1;durP1;ratioP1;P2;durP2;ratioP2
72674;SDS011;60752;53.962;9.614;2022-09-29T00:03:27;9.47;;;4.27;;
72674;SDS011;60752;53.962;9.614;2022-09-29T00:08:28;11.75;;;5.05;;
72674;SDS011;60752;53.962;9.614;2022-09-29T00:13:30;8.95;;;4.68;;
72674;SDS011;60752;53.962;9.614;2022-09-29T00:18:32;10.57;;;4.37;;
72674;SDS011;60752;53.962;9.614;2022-09-29T00:23:33;7.33;;;3.83;;
72674;SDS011;60752;53.962;9.614;2022-09-29T00:28:34;9.90;;;4.60;;
72674;SDS011;60752;53.962;9.614;2022-09-29T00:33:38;7.53;;;4.35;;
72674;SDS011;60752;53.962;9.614;2022-09-29T00:38:40;10.85;;;5.15;;
72674;SDS011;60752;53.962;9.614;2022-09-29T00:43:52;8.57;;;4.50;;
72674;SDS011;60752;53.962;9.614;2022-09-29T00:48:57;7.95;;;4.20;;
72674;SDS011;60752;53.962;9.614;2022-09-29T00:54:00;9.70;;;4.35;;
72674;SDS011;60752;53.962;9.614;2022-09-29T00:59:02;9.03;;;4.47;;
72674;SDS011;60752;53.962;9.614;2022-09-29T01:04:08;6.45;;;3.80;;
72674;SDS011;60752;53.962;9.614;2022-09-29T01:09:13;7.65;;;3.88;;
72674;SDS011;60752;53.962;9.614;2022-09-29T01:14:16;8.90;;;5.17;;
72674;SDS011;60752;53.962;9.614;2022-09-29T01:19:20;8.20;;;4.03;;
72674;SDS011;60752;53.962;9.614;2022-09-29T01:30:05;9.87;;;4.70;;
72674;SDS011;60752;53.962;9.614;2022-09-29T01:35:13;9.98;;;4.72;;
72674;SDS011;60752;53.962;9.614;2022-09-29T01:40:21;8.98;;;4.63;;
72674;SDS011;60752;53.962;9.614;2022-09-29T01:45:30;8.83;;;3.90;;
72674;SDS011;60752;53.962;9.614;2022-09-29T01:50:34;9.05;;;4.60;;
72674;SDS011;60752;53.962;9.614;2022-09-29T01:55:40;8.32;;;4.15;;
72674;SDS011;60752;53.962;9.614;2022-09-29T02:00:46;11.23;;;5.03;;
72674;SDS011;60752;53.962;9.614;2022-09-29T02:05:51;9.43;;;4.32;;
72674;SDS011;60752;53.962;9.614;2022-09-29T02:10:55;8.90;;;4.65;;
72674;SDS011;60752;53.962;9.614;2022-09-29T02:16:00;9.67;;;5.03;;
72674;SDS011;60752;53.962;9.614;2022-09-29T02:21:03;8.97;;;4.60;;
72674;SDS011;60752;53.962;9.614;2022-09-29T02:26:04;10.07;;;4.25;;
72674;SDS011;60752;53.962;9.614;2022-09-29T02:31:04;9.60;;;4.77;;
72674;SDS011;60752;53.962;9.614;2022-09-29T02:36:19;9.87;;;4.73;;
72674;SDS011;60752;53.962;9.614;2022-09-29T02:41:33;9.73;;;4.28;;
72674;SDS011;60752;53.962;9.614;2022-09-29T02:46:42;9.50;;;4.20;;
72674;SDS011;60752;53.962;9.614;2022-09-29T02:51:53;8.77;;;4.13;;
72674;SDS011;60752;53.962;9.614;2022-09-29T02:56:57;9.77;;;4.45;;
72674;SDS011;60752;53.962;9.614;2022-09-29T03:02:09;10.27;;;4.60;;
72674;SDS011;60752;53.962;9.614;2022-09-29T03:07:11;10.93;;;5.47;;
72674;SDS011;60752;53.962;9.614;2022-09-29T03:12:11;12.77;;;5.30;;
72674;SDS011;60752;53.962;9.614;2022-09-29T03:17:12;10.97;;;5.27;;
72674;SDS011;60752;53.962;9.614;2022-09-29T03:22:22;10.83;;;5.83;;
72674;SDS011;60752;53.962;9.614;2022-09-29T03:27:23;15.13;;;6.07;;
72674;SDS011;60752;53.962;9.614;2022-09-29T03:32:23;13.20;;;5.63;;
72674;SDS011;60752;53.962;9.614;2022-09-29T03:37:25;14.63;;;6.70;;
72674;SDS011;60752;53.962;9.614;2022-09-29T03:42:26;12.57;;;6.00;;
72674;SDS011;60752;53.962;9.614;2022-09-29T03:47:26;12.45;;;6.20;;
72674;SDS011;60752;53.962;9.614;2022-09-29T03:52:28;11.83;;;5.80;;
72674;SDS011;60752;53.962;9.614;2022-09-29T03:57:28;13.50;;;5.50;;
72674;SDS011;60752;53.962;9.614;2022-09-29T04:02:29;10.93;;;5.63;;
72674;SDS011;60752;53.962;9.614;2022-09-29T04:07:30;11.30;;;5.67;;
72674;SDS011;60752;53.962;9.614;2022-09-29T04:12:31;14.93;;;5.93;;
72674;SDS011;60752;53.962;9.614;2022-09-29T04:17:31;11.90;;;5.50;;
72674;SDS011;60752;53.962;9.614;2022-09-29T04:22:33;13.43;;;6.20;;
72674;SDS011;60752;53.962;9.614;2022-09-29T04:27:33;12.87;;;6.53;;
72674;SDS011;60752;53.962;9.614;2022-09-29T04:32:34;14.40;;;6.17;;
72674;SDS011;60752;53.962;9.614;2022-09-29T04:37:36;13.60;;;6.77;;
72674;SDS011;60752;53.962;9.614;2022-09-29T04:42:36;14.07;;;6.93;;
72674;SDS011;60752;53.962;9.614;2022-09-29T04:47:36;20.37;;;7.77;;
72674;SDS011;60752;53.962;9.614;2022-09-29T04:52:41;14.13;;;7.10;;
72674;SDS011;60752;53.962;9.614;2022-09-29T04:57:42;16.92;;;7.38;;
72674;SDS011;60752;53.962;9.614;2022-09-29T05:02:43;14.40;;;6.67;;
72674;SDS011;60752;53.962;9.614;2022-09-29T05:07:45;15.00;;;7.15;;
72674;SDS011;60752;53.962;9.614;2022-09-29T05:12:48;12.60;;;6.53;;
72674;SDS011;60752;53.962;9.614;2022-09-29T05:17:49;14.48;;;7.32;;
72674;SDS011;60752;53.962;9.614;2022-09-29T05:22:51;12.27;;;6.37;;
72674;SDS011;60752;53.962;9.614;2022-09-29T05:27:51;16.58;;;7.63;;
72674;SDS011;60752;53.962;9.614;2022-09-29T05:32:52;14.33;;;7.10;;
72674;SDS011;60752;53.962;9.614;2022-09-29T05:37:53;16.73;;;7.10;;
72674;SDS011;60752;53.962;9.614;2022-09-29T05:42:54;13.25;;;6.65;;
72674;SDS011;60752;53.962;9.614;2022-09-29T05:47:54;14.23;;;7.80;;
72674;SDS011;60752;53.962;9.614;2022-09-29T05:53:02;14.98;;;7.55;;
72674;SDS011;60752;53.962;9.614;2022-09-29T05:58:02;13.57;;;6.70;;
72674;SDS011;60752;53.962;9.614;2022-09-29T06:03:03;15.73;;;7.33;;
72674;SDS011;60752;53.962;9.614;2022-09-29T06:08:05;15.60;;;7.77;;
72674;SDS011;60752;53.962;9.614;2022-09-29T06:13:06;19.17;;;8.20;;
72674;SDS011;60752;53.962;9.614;2022-09-29T06:18:06;15.97;;;7.60;;
72674;SDS011;60752;53.962;9.614;2022-09-29T06:23:08;20.20;;;8.60;;
72674;SDS011;60752;53.962;9.614;2022-09-29T06:28:08;15.38;;;8.05;;
72674;SDS011;60752;53.962;9.614;2022-09-29T06:33:09;16.40;;;8.13;;
72674;SDS011;60752;53.962;9.614;2022-09-29T06:38:11;16.40;;;8.63;;
72674;SDS011;60752;53.962;9.614;2022-09-29T06:43:11;17.27;;;8.57;;
72674;SDS011;60752;53.962;9.614;2022-09-29T06:48:11;15.57;;;8.37;;
72674;SDS011;60752;53.962;9.614;2022-09-29T06:53:13;17.20;;;7.70;;
72674;SDS011;60752;53.962;9.614;2022-09-29T06:58:14;19.37;;;9.40;;
72674;SDS011;60752;53.962;9.614;2022-09-29T07:03:14;15.60;;;8.10;;
72674;SDS011;60752;53.962;9.614;2022-09-29T07:08:16;19.60;;;8.90;;
72674;SDS011;60752;53.962;9.614;2022-09-29T07:13:16;17.83;;;8.43;;
72674;SDS011;60752;53.962;9.614;2022-09-29T07:18:17;17.37;;;8.50;;
72674;SDS011;60752;53.962;9.614;2022-09-29T07:23:18;17.07;;;8.87;;
72674;SDS011;60752;53.962;9.614;2022-09-29T07:28:19;16.33;;;8.43;;
72674;SDS011;60752;53.962;9.614;2022-09-29T07:33:19;18.67;;;9.07;;
72674;SDS011;60752;53.962;9.614;2022-09-29T07:38:21;18.60;;;9.07;;
72674;SDS011;60752;53.962;9.614;2022-09-29T07:43:21;20.73;;;10.45;;
72674;SDS011;60752;53.962;9.614;2022-09-29T07:48:22;21.03;;;9.83;;
72674;SDS011;60752;53.962;9.614;2022-09-29T07:53:23;19.13;;;10.73;;
72674;SDS011;60752;53.962;9.614;2022-09-29T07:58:24;18.47;;;9.47;;
72674;SDS011;60752;53.962;9.614;2022-09-29T08:03:24;15.83;;;8.67;;
72674;SDS011;60752;53.962;9.614;2022-09-29T08:08:34;15.50;;;8.27;;
72674;SDS011;60752;53.962;9.614;2022-09-29T08:13:35;17.20;;;7.87;;
72674;SDS011;60752;53.962;9.614;2022-09-29T08:18:37;19.85;;;8.80;;
72674;SDS011;60752;53.962;9.614;2022-09-29T08:23:39;16.77;;;8.40;;
72674;SDS011;60752;53.962;9.614;2022-09-29T08:28:40;15.52;;;7.82;;
72674;SDS011;60752;53.962;9.614;2022-09-29T08:33:41;19.47;;;9.23;;
72674;SDS011;60752;53.962;9.614;2022-09-29T08:38:43;15.63;;;8.90;;
72674;SDS011;60752;53.962;9.614;2022-09-29T08:43:44;16.48;;;9.25;;
72674;SDS011;60752;53.962;9.614;2022-09-29T08:48:46;18.67;;;9.25;;
72674;SDS011;60752;53.962;9.614;2022-09-29T08:53:49;16.10;;;8.50;;
72674;SDS011;60752;53.962;9.614;2022-09-29T08:58:53;17.10;;;8.15;;
72674;SDS011;60752;53.962;9.614;2022-09-29T09:03:56;16.17;;;8.80;;
72674;SDS011;60752;53.962;9.614;2022-09-29T09:09:30;16.65;;;9.27;;
72674;SDS011;60752;53.962;9.614;2022-09-29T09:14:43;15.73;;;8.07;;
72674;SDS011;60752;53.962;9.614;2022-09-29T09:19:58;15.13;;;8.23;;
72674;SDS011;60752;53.962;9.614;2022-09-29T09:25:16;21.10;;;10.20;;
72674;SDS011;60752;53.962;9.614;2022-09-29T09:30:19;16.60;;;8.57;;
72674;SDS011;60752;53.962;9.614;2022-09-29T09:35:24;17.33;;;9.40;;
72674;SDS011;60752;53.962;9.614;2022-09-29T09:40:35;15.88;;;9.02;;
72674;SDS011;60752;53.962;9.614;2022-09-29T09:45:41;15.85;;;9.00;;
72674;SDS011;60752;53.962;9.614;2022-09-29T09:50:46;16.90;;;7.80;;
72674;SDS011;60752;53.962;9.614;2022-09-29T09:55:50;15.77;;;7.40;;
72674;SDS011;60752;53.962;9.614;2022-09-29T10:01:00;16.27;;;8.80;;
72674;SDS011;60752;53.962;9.614;2022-09-29T10:06:03;15.23;;;8.13;;
72674;SDS011;60752;53.962;9.614;2022-09-29T10:11:11;17.42;;;9.30;;
72674;SDS011;60752;53.962;9.614;2022-09-29T10:16:21;16.67;;;9.97;;
72674;SDS011;60752;53.962;9.614;2022-09-29T10:21:34;17.35;;;9.80;;
72674;SDS011;60752;53.962;9.614;2022-09-29T10:26:38;16.02;;;9.60;;
72674;SDS011;60752;53.962;9.614;2022-09-29T10:31:42;15.77;;;9.00;;
72674;SDS011;60752;53.962;9.614;2022-09-29T10:36:47;15.55;;;8.75;;
72674;SDS011;60752;53.962;9.614;2022-09-29T10:41:52;13.13;;;7.10;;
72674;SDS011;60752;53.962;9.614;2022-09-29T10:46:53;13.38;;;7.07;;
72674;SDS011;60752;53.962;9.614;2022-09-29T10:52:02;10.88;;;5.60;;
72674;SDS011;60752;53.962;9.614;2022-09-29T10:57:14;7.90;;;3.83;;
72674;SDS011;60752;53.962;9.614;2022-09-29T11:02:16;5.68;;;2.70;;
72674;SDS011;60752;53.962;9.614;2022-09-29T11:07:22;5.80;;;1.90;;
72674;SDS011;60752;53.962;9.614;2022-09-29T11:12:28;4.60;;;1.83;;
72674;SDS011;60752;53.962;9.614;2022-09-29T11:17:35;4.27;;;1.93;;
72674;SDS011;60752;53.962;9.614;2022-09-29T11:22:46;5.15;;;1.55;;
72674;SDS011;60752;53.962;9.614;2022-09-29T11:28:02;3.53;;;1.13;;
72674;SDS011;60752;53.962;9.614;2022-09-29T11:33:18;3.17;;;1.33;;
72674;SDS011;60752;53.962;9.614;2022-09-29T11:38:36;3.25;;;1.20;;
72674;SDS011;60752;53.962;9.614;2022-09-29T11:43:45;2.45;;;0.85;;
72674;SDS011;60752;53.962;9.614;2022-09-29T11:48:55;3.90;;;1.37;;
72674;SDS011;60752;53.962;9.614;2022-09-29T11:54:14;2.08;;;0.70;;
72674;SDS011;60752;53.962;9.614;2022-09-29T11:59:49;1.83;;;0.80;;
72674;SDS011;60752;53.962;9.614;2022-09-29T12:04:59;5.07;;;1.07;;
72674;SDS011;60752;53.962;9.614;2022-09-29T12:10:12;1.97;;;0.70;;
72674;SDS011;60752;53.962;9.614;2022-09-29T12:15:27;2.53;;;0.80;;
72674;SDS011;60752;53.962;9.614;2022-09-29T12:20:35;1.67;;;0.70;;
72674;SDS011;60752;53.962;9.614;2022-09-29T12:25:42;1.80;;;0.50;;
72674;SDS011;60752;53.962;9.614;2022-09-29T12:30:53;1.75;;;0.70;;
72674;SDS011;60752;53.962;9.614;2022-09-29T12:36:00;3.55;;;0.90;;
72674;SDS011;60752;53.962;9.614;2022-09-29T12:41:10;3.10;;;0.93;;
72674;SDS011;60752;53.962;9.614;2022-09-29T12:46:16;3.83;;;1.20;;
72674;SDS011;60752;53.962;9.614;2022-09-29T12:51:25;4.82;;;1.52;;
72674;SDS011;60752;53.962;9.614;2022-09-29T12:56:30;4.87;;;1.90;;
72674;SDS011;60752;53.962;9.614;2022-09-29T13:01:37;4.53;;;1.50;;
72674;SDS011;60752;53.962;9.614;2022-09-29T13:06:44;3.60;;;1.48;;
72674;SDS011;60752;53.962;9.614;2022-09-29T13:12:03;3.88;;;1.20;;
72674;SDS011;60752;53.962;9.614;2022-09-29T13:17:28;3.83;;;1.20;;
72674;SDS011;60752;53.962;9.614;2022-09-29T13:22:47;4.32;;;1.25;;
72674;SDS011;60752;53.962;9.614;2022-09-29T13:28:00;2.35;;;0.80;;
72674;SDS011;60752;53.962;9.614;2022-09-29T13:33:07;1.93;;;0.70;;
72674;SDS011;60752;53.962;9.614;2022-09-29T13:38:12;3.13;;;1.00;;
72674;SDS011;60752;53.962;9.614;2022-09-29T13:48:46;3.38;;;0.82;;
72674;SDS011;60752;53.962;9.614;2022-09-29T13:59:20;4.23;;;1.97;;
72674;SDS011;60752;53.962;9.614;2022-09-29T14:04:34;7.88;;;2.08;;
72674;SDS011;60752;53.962;9.614;2022-09-29T14:09:43;7.97;;;3.10;;
72674;SDS011;60752;53.962;9.614;2022-09-29T14:14:49;6.10;;;2.80;;
72674;SDS011;60752;53.962;9.614;2022-09-29T14:19:55;5.67;;;2.70;;
72674;SDS011;60752;53.962;9.614;2022-09-29T14:30:47;8.70;;;3.45;;
72674;SDS011;60752;53.962;9.614;2022-09-29T14:35:54;9.30;;;3.30;;
72674;SDS011;60752;53.962;9.614;2022-09-29T14:41:22;9.13;;;3.83;;
72674;SDS011;60752;53.962;9.614;2022-09-29T14:51:54;6.10;;;3.30;;
72674;SDS011;60752;53.962;9.614;2022-09-29T14:57:01;7.43;;;3.17;;
72674;SDS011;60752;53.962;9.614;2022-09-29T15:02:15;6.43;;;3.10;;
72674;SDS011;60752;53.962;9.614;2022-09-29T15:07:21;7.00;;;3.30;;
72674;SDS011;60752;53.962;9.614;2022-09-29T15:12:22;6.57;;;3.23;;
72674;SDS011;60752;53.962;9.614;2022-09-29T15:17:28;7.03;;;3.67;;
72674;SDS011;60752;53.962;9.614;2022-09-29T15:22:43;7.53;;;3.05;;
72674;SDS011;60752;53.962;9.614;2022-09-29T15:27:55;7.27;;;3.23;;
72674;SDS011;60752;53.962;9.614;2022-09-29T15:33:08;5.88;;;2.80;;
72674;SDS011;60752;53.962;9.614;2022-09-29T15:38:27;5.03;;;1.90;;
72674;SDS011;60752;53.962;9.614;2022-09-29T15:43:32;4.17;;;1.60;;
72674;SDS011;60752;53.962;9.614;2022-09-29T15:48:39;4.07;;;1.13;;
72674;SDS011;60752;53.962;9.614;2022-09-29T15:53:41;4.30;;;1.30;;
72674;SDS011;60752;53.962;9.614;2022-09-29T15:58:42;2.72;;;1.00;;
72674;SDS011;60752;53.962;9.614;2022-09-29T16:03:44;2.50;;;1.00;;
72674;SDS011;60752;53.962;9.614;2022-09-29T16:08:49;4.00;;;1.00;;
72674;SDS011;60752;53.962;9.614;2022-09-29T16:13:52;3.90;;;1.35;;
72674;SDS011;60752;53.962;9.614;2022-09-29T16:18:58;3.88;;;1.50;;
72674;SDS011;60752;53.962;9.614;2022-09-29T16:24:05;3.83;;;1.17;;
72674;SDS011;60752;53.962;9.614;2022-09-29T16:29:27;3.47;;;1.27;;
72674;SDS011;60752;53.962;9.614;2022-09-29T16:34:30;4.97;;;1.80;;
72674;SDS011;60752;53.962;9.614;2022-09-29T16:39:38;3.93;;;1.43;;
72674;SDS011;60752;53.962;9.614;2022-09-29T16:44:41;4.28;;;1.65;;
72674;SDS011;60752;53.962;9.614;2022-09-29T16:49:43;4.53;;;1.90;;
72674;SDS011;60752;53.962;9.614;2022-09-29T16:54:48;6.00;;;2.73;;
72674;SDS011;60752;53.962;9.614;2022-09-29T16:59:49;7.93;;;2.40;;
72674;SDS011;60752;53.962;9.614;2022-09-29T17:04:52;5.15;;;2.53;;
72674;SDS011;60752;53.962;9.614;2022-09-29T17:09:55;4.38;;;1.85;;
72674;SDS011;60752;53.962;9.614;2022-09-29T17:14:57;5.20;;;2.20;;
72674;SDS011;60752;53.962;9.614;2022-09-29T17:20:00;5.50;;;2.13;;
72674;SDS011;60752;53.962;9.614;2022-09-29T17:25:02;7.10;;;2.60;;
72674;SDS011;60752;53.962;9.614;2022-09-29T17:30:03;4.63;;;2.15;;
72674;SDS011;60752;53.962;9.614;2022-09-29T17:35:05;4.87;;;2.30;;
72674;SDS011;60752;53.962;9.614;2022-09-29T17:40:14;5.22;;;2.08;;
72674;SDS011;60752;53.962;9.614;2022-09-29T17:45:19;5.53;;;1.98;;
72674;SDS011;60752;53.962;9.614;2022-09-29T17:50:22;3.93;;;1.70;;
72674;SDS011;60752;53.962;9.614;2022-09-29T17:55:25;5.45;;;1.70;;
72674;SDS011;60752;53.962;9.614;2022-09-29T18:00:28;5.50;;;1.88;;
72674;SDS011;60752;53.962;9.614;2022-09-29T18:05:30;5.63;;;1.80;;
72674;SDS011;60752;53.962;9.614;2022-09-29T18:10:34;5.03;;;1.60;;
72674;SDS011;60752;53.962;9.614;2022-09-29T18:15:39;4.50;;;1.60;;
72674;SDS011;60752;53.962;9.614;2022-09-29T18:20:40;3.90;;;1.60;;
72674;SDS011;60752;53.962;9.614;2022-09-29T18:25:42;5.10;;;1.63;;
72674;SDS011;60752;53.962;9.614;2022-09-29T18:30:45;4.78;;;1.90;;
72674;SDS011;60752;53.962;9.614;2022-09-29T18:35:50;3.65;;;1.45;;
72674;SDS011;60752;53.962;9.614;2022-09-29T18:40:52;5.50;;;1.97;;
72674;SDS011;60752;53.962;9.614;2022-09-29T18:45:54;4.90;;;1.98;;
72674;SDS011;60752;53.962;9.614;2022-09-29T18:50:55;6.68;;;2.67;;
72674;SDS011;60752;53.962;9.614;2022-09-29T18:55:58;4.77;;;2.30;;
72674;SDS011;60752;53.962;9.614;2022-09-29T19:01:01;5.37;;;2.37;;
72674;SDS011;60752;53.962;9.614;2022-09-29T19:06:01;4.60;;;2.20;;
72674;SDS011;60752;53.962;9.614;2022-09-29T19:11:03;4.20;;;2.33;;
72674;SDS011;60752;53.962;9.614;2022-09-29T19:16:06;5.93;;;2.90;;
72674;SDS011;60752;53.962;9.614;2022-09-29T19:21:08;5.40;;;2.70;;
72674;SDS011;60752;53.962;9.614;2022-09-29T19:26:11;4.95;;;2.25;;
72674;SDS011;60752;53.962;9.614;2022-09-29T19:31:14;6.57;;;3.08;;
72674;SDS011;60752;53.962;9.614;2022-09-29T19:36:16;5.43;;;2.40;;
72674;SDS011;60752;53.962;9.614;2022-09-29T19:41:20;5.00;;;2.42;;
72674;SDS011;60752;53.962;9.614;2022-09-29T19:46:21;6.28;;;2.30;;
72674;SDS011;60752;53.962;9.614;2022-09-29T19:51:22;6.60;;;2.90;;
72674;SDS011;60752;53.962;9.614;2022-09-29T19:56:23;5.53;;;2.60;;
72674;SDS011;60752;53.962;9.614;2022-09-29T20:01:24;5.73;;;2.87;;
72674;SDS011;60752;53.962;9.614;2022-09-29T20:06:24;9.50;;;2.60;;
72674;SDS011;60752;53.962;9.614;2022-09-29T20:11:26;6.13;;;2.47;;
72674;SDS011;60752;53.962;9.614;2022-09-29T20:16:26;6.10;;;2.78;;
72674;SDS011;60752;53.962;9.614;2022-09-29T20:21:29;7.23;;;3.00;;
72674;SDS011;60752;53.962;9.614;2022-09-29T20:26:31;6.65;;;3.60;;
72674;SDS011;60752;53.962;9.614;2022-09-29T20:31:32;8.57;;;3.83;;
72674;SDS011;60752;53.962;9.614;2022-09-29T20:36:32;8.90;;;4.07;;
72674;SDS011;60752;53.962;9.614;2022-09-29T20:41:35;7.47;;;3.80;;
72674;SDS011;60752;53.962;9.614;2022-09-29T20:46:35;7.57;;;3.88;;
72674;SDS011;60752;53.962;9.614;2022-09-29T20:51:36;7.50;;;3.87;;
72674;SDS011;60752;53.962;9.614;2022-09-29T20:56:38;7.03;;;3.57;;
72674;SDS011;60752;53.962;9.614;2022-09-29T21:01:38;6.97;;;3.75;;
72674;SDS011;60752;53.962;9.614;2022-09-29T21:06:40;8.43;;;4.55;;
72674;SDS011;60752;53.962;9.614;2022-09-29T21:11:43;11.20;;;4.30;;
72674;SDS011;60752;53.962;9.614;2022-09-29T21:16:44;8.63;;;4.30;;
72674;SDS011;60752;53.962;9.614;2022-09-29T21:21:46;9.52;;;4.65;;
72674;SDS011;60752;53.962;9.614;2022-09-29T21:26:48;10.43;;;5.00;;
72674;SDS011;60752;53.962;9.614;2022-09-29T21:31:48;10.18;;;4.85;;
72674;SDS011;60752;53.962;9.614;2022-09-29T21:36:49;8.70;;;4.47;;
72674;SDS011;60752;53.962;9.614;2022-09-29T21:41:50;9.23;;;5.03;;
72674;SDS011;60752;53.962;9.614;2022-09-29T21:46:51;10.10;;;4.97;;
72674;SDS011;60752;53.962;9.614;2022-09-29T21:51:51;9.03;;;4.57;;
72674;SDS011;60752;53.962;9.614;2022-09-29T21:56:53;9.80;;;4.77;;
72674;SDS011;60752;53.962;9.614;2022-09-29T22:01:54;9.40;;;5.27;;
72674;SDS011;60752;53.962;9.614;2022-09-29T22:06:54;7.47;;;4.40;;
72674;SDS011;60752;53.962;9.614;2022-09-29T22:11:56;9.57;;;5.33;;
72674;SDS011;60752;53.962;9.614;2022-09-29T22:16:56;9.37;;;4.97;;
72674;SDS011;60752;53.962;9.614;2022-09-29T22:21:57;8.05;;;4.68;;
72674;SDS011;60752;53.962;9.614;2022-09-29T22:26:59;8.93;;;4.87;;
72674;SDS011;60752;53.962;9.614;2022-09-29T22:31:59;9.40;;;4.67;;
72674;SDS011;60752;53.962;9.614;2022-09-29T22:37:00;9.73;;;5.10;;
72674;SDS011;60752;53.962;9.614;2022-09-29T22:42:02;10.07;;;5.13;;
72674;SDS011;60752;53.962;9.614;2022-09-29T22:47:02;8.63;;;4.53;;
72674;SDS011;60752;53.962;9.614;2022-09-29T22:52:03;13.40;;;5.73;;
72674;SDS011;60752;53.962;9.614;2022-09-29T22:57:05;12.37;;;5.33;;
72674;SDS011;60752;53.962;9.614;2022-09-29T23:02:05;9.02;;;5.40;;
72674;SDS011;60752;53.962;9.614;2022-09-29T23:07:06;10.77;;;5.80;;
72674;SDS011;60752;53.962;9.614;2022-09-29T23:12:07;12.00;;;5.87;;
72674;SDS011;60752;53.962;9.614;2022-09-29T23:17:08;12.77;;;5.40;;
72674;SDS011;60752;53.962;9.614;2022-09-29T23:22:08;10.43;;;5.60;;
72674;SDS011;60752;53.962;9.614;2022-09-29T23:27:10;11.40;;;5.27;;
72674;SDS011;60752;53.962;9.614;2022-09-29T23:32:11;10.77;;;5.03;;
72674;SDS011;60752;53.962;9.614;2022-09-29T23:37:12;9.77;;;5.47;;
72674;SDS011;60752;53.962;9.614;2022-09-29T23:42:14;11.20;;;5.27;;
72674;SDS011;60752;53.962;9.614;2022-09-29T23:47:14;10.50;;;5.35;;
72674;SDS011;60752;53.962;9.614;2022-09-29T23:52:14;11.73;;;5.80;;
72674;SDS011;60752;53.962;9.614;2022-09-29T23:57:16;10.20;;;5.50;;
